sensor_id;sensor_type;location;lat;lon;timestamp;P1;durP1;ratioP1;P2;durP2;ratioP2
78783;SDS011;68127;51.050;14.084;2023-04-25T00:00:13;6.28;;;2.85;;
78783;SDS011;68127;51.050;14.084;2023-04-25T00:02:39;4.82;;;2.78;;
78783;SDS011;68127;51.050;14.084;2023-04-25T00:05:04;5.30;;;3.15;;
78783;SDS011;68127;51.050;14.084;2023-04-25T00:07:29;5.65;;;3.00;;
78783;SDS011;68127;51.050;14.084;2023-04-25T00:09:56;7.05;;;3.47;;
78783;SDS011;68127;51.050;14.084;2023-04-25T00:12:21;5.70;;;3.00;;
78783;SDS011;68127;51.050;14.084;2023-04-25T00:14:47;5.68;;;3.03;;
78783;SDS011;68127;51.050;14.084;2023-04-25T00:17:14;5.60;;;3.42;;
78783;SDS011;68127;51.050;14.084;2023-04-25T00:19:39;5.30;;;3.08;;
78783;SDS011;68127;51.050;14.084;2023-04-25T00:22:05;6.22;;;3.40;;
78783;SDS011;68127;51.050;14.084;2023-04-25T00:24:30;6.45;;;3.40;;
78783;SDS011;68127;51.050;14.084;2023-04-25T00:26:55;5.90;;;3.63;;
78783;SDS011;68127;51.050;14.084;2023-04-25T00:29:21;5.80;;;3.15;;
78783;SDS011;68127;51.050;14.084;2023-04-25T00:31:46;5.13;;;3.13;;
78783;SDS011;68127;51.050;14.084;2023-04-25T00:34:11;5.75;;;3.40;;
78783;SDS011;68127;51.050;14.084;2023-04-25T00:36:37;5.63;;;3.28;;
78783;SDS011;68127;51.050;14.084;2023-04-25T00:39:02;7.65;;;3.55;;
78783;SDS011;68127;51.050;14.084;2023-04-25T00:41:29;5.10;;;3.10;;
78783;SDS011;68127;51.050;14.084;2023-04-25T00:43:55;6.75;;;3.20;;
78783;SDS011;68127;51.050;14.084;2023-04-25T00:46:21;7.28;;;3.30;;
78783;SDS011;68127;51.050;14.084;2023-04-25T00:48:46;6.38;;;2.78;;
78783;SDS011;68127;51.050;14.084;2023-04-25T00:51:13;6.05;;;3.08;;
78783;SDS011;68127;51.050;14.084;2023-04-25T00:53:41;7.93;;;3.15;;
78783;SDS011;68127;51.050;14.084;2023-04-25T00:56:06;6.85;;;3.30;;
78783;SDS011;68127;51.050;14.084;2023-04-25T00:58:32;5.60;;;3.30;;
78783;SDS011;68127;51.050;14.084;2023-04-25T01:00:57;6.05;;;3.20;;
78783;SDS011;68127;51.050;14.084;2023-04-25T01:03:22;6.88;;;3.55;;
78783;SDS011;68127;51.050;14.084;2023-04-25T01:05:48;5.60;;;3.50;;
78783;SDS011;68127;51.050;14.084;2023-04-25T01:08:14;7.60;;;3.45;;
78783;SDS011;68127;51.050;14.084;2023-04-25T01:10:40;7.75;;;3.30;;
78783;SDS011;68127;51.050;14.084;2023-04-25T01:13:05;7.40;;;3.47;;
78783;SDS011;68127;51.050;14.084;2023-04-25T01:15:30;6.03;;;3.13;;
78783;SDS011;68127;51.050;14.084;2023-04-25T01:17:56;6.15;;;3.30;;
78783;SDS011;68127;51.050;14.084;2023-04-25T01:20:23;6.13;;;3.58;;
78783;SDS011;68127;51.050;14.084;2023-04-25T01:22:51;6.15;;;3.53;;
78783;SDS011;68127;51.050;14.084;2023-04-25T01:25:17;6.20;;;3.40;;
78783;SDS011;68127;51.050;14.084;2023-04-25T01:27:43;7.57;;;3.80;;
78783;SDS011;68127;51.050;14.084;2023-04-25T01:30:08;5.93;;;3.50;;
78783;SDS011;68127;51.050;14.084;2023-04-25T01:32:34;7.07;;;3.70;;
78783;SDS011;68127;51.050;14.084;2023-04-25T01:35:06;7.75;;;3.53;;
78783;SDS011;68127;51.050;14.084;2023-04-25T01:37:36;6.95;;;3.92;;
78783;SDS011;68127;51.050;14.084;2023-04-25T01:40:02;7.15;;;3.50;;
78783;SDS011;68127;51.050;14.084;2023-04-25T01:42:30;6.63;;;3.40;;
78783;SDS011;68127;51.050;14.084;2023-04-25T01:44:55;6.88;;;3.47;;
78783;SDS011;68127;51.050;14.084;2023-04-25T01:47:20;5.38;;;3.22;;
78783;SDS011;68127;51.050;14.084;2023-04-25T01:49:45;5.13;;;3.38;;
78783;SDS011;68127;51.050;14.084;2023-04-25T01:52:11;6.50;;;3.40;;
78783;SDS011;68127;51.050;14.084;2023-04-25T01:54:36;7.30;;;3.88;;
78783;SDS011;68127;51.050;14.084;2023-04-25T01:57:01;5.63;;;3.45;;
78783;SDS011;68127;51.050;14.084;2023-04-25T01:59:27;6.40;;;3.95;;
78783;SDS011;68127;51.050;14.084;2023-04-25T02:01:52;6.13;;;3.50;;
78783;SDS011;68127;51.050;14.084;2023-04-25T02:04:17;7.50;;;4.28;;
78783;SDS011;68127;51.050;14.084;2023-04-25T02:06:42;7.18;;;3.55;;
78783;SDS011;68127;51.050;14.084;2023-04-25T02:09:08;6.53;;;3.90;;
78783;SDS011;68127;51.050;14.084;2023-04-25T02:11:33;7.85;;;3.80;;
78783;SDS011;68127;51.050;14.084;2023-04-25T02:13:58;6.03;;;3.65;;
78783;SDS011;68127;51.050;14.084;2023-04-25T02:16:23;6.65;;;4.10;;
78783;SDS011;68127;51.050;14.084;2023-04-25T02:18:50;6.10;;;4.20;;
78783;SDS011;68127;51.050;14.084;2023-04-25T02:21:20;8.00;;;4.13;;
78783;SDS011;68127;51.050;14.084;2023-04-25T02:23:45;8.60;;;3.90;;
78783;SDS011;68127;51.050;14.084;2023-04-25T02:26:13;9.18;;;4.40;;
78783;SDS011;68127;51.050;14.084;2023-04-25T02:28:38;6.40;;;3.97;;
78783;SDS011;68127;51.050;14.084;2023-04-25T02:31:04;7.43;;;4.07;;
78783;SDS011;68127;51.050;14.084;2023-04-25T02:33:29;8.85;;;4.22;;
78783;SDS011;68127;51.050;14.084;2023-04-25T02:35:55;6.15;;;4.03;;
78783;SDS011;68127;51.050;14.084;2023-04-25T02:38:20;7.15;;;4.28;;
78783;SDS011;68127;51.050;14.084;2023-04-25T02:40:45;8.63;;;3.95;;
78783;SDS011;68127;51.050;14.084;2023-04-25T02:43:10;7.57;;;4.20;;
78783;SDS011;68127;51.050;14.084;2023-04-25T02:45:36;7.63;;;4.18;;
78783;SDS011;68127;51.050;14.084;2023-04-25T02:48:02;9.20;;;3.97;;
78783;SDS011;68127;51.050;14.084;2023-04-25T02:50:28;8.40;;;4.10;;
78783;SDS011;68127;51.050;14.084;2023-04-25T02:52:53;8.10;;;4.22;;
78783;SDS011;68127;51.050;14.084;2023-04-25T02:55:18;7.07;;;4.00;;
78783;SDS011;68127;51.050;14.084;2023-04-25T02:57:44;7.32;;;4.03;;
78783;SDS011;68127;51.050;14.084;2023-04-25T03:00:10;7.30;;;4.53;;
78783;SDS011;68127;51.050;14.084;2023-04-25T03:02:36;6.32;;;3.70;;
78783;SDS011;68127;51.050;14.084;2023-04-25T03:05:02;6.57;;;3.97;;
78783;SDS011;68127;51.050;14.084;2023-04-25T03:07:28;8.25;;;4.28;;
78783;SDS011;68127;51.050;14.084;2023-04-25T03:09:53;7.57;;;4.18;;
78783;SDS011;68127;51.050;14.084;2023-04-25T03:12:18;7.93;;;4.10;;
78783;SDS011;68127;51.050;14.084;2023-04-25T03:14:44;7.90;;;4.03;;
78783;SDS011;68127;51.050;14.084;2023-04-25T03:17:09;8.63;;;4.10;;
78783;SDS011;68127;51.050;14.084;2023-04-25T03:19:35;9.10;;;4.65;;
78783;SDS011;68127;51.050;14.084;2023-04-25T03:22:00;6.20;;;3.90;;
78783;SDS011;68127;51.050;14.084;2023-04-25T03:24:25;7.38;;;4.45;;
78783;SDS011;68127;51.050;14.084;2023-04-25T03:26:52;8.02;;;4.22;;
78783;SDS011;68127;51.050;14.084;2023-04-25T03:29:17;8.15;;;4.43;;
78783;SDS011;68127;51.050;14.084;2023-04-25T03:31:42;9.43;;;4.20;;
78783;SDS011;68127;51.050;14.084;2023-04-25T03:34:07;7.80;;;4.57;;
78783;SDS011;68127;51.050;14.084;2023-04-25T03:36:33;8.85;;;4.28;;
78783;SDS011;68127;51.050;14.084;2023-04-25T03:38:58;6.72;;;4.00;;
78783;SDS011;68127;51.050;14.084;2023-04-25T03:41:23;9.25;;;4.30;;
78783;SDS011;68127;51.050;14.084;2023-04-25T03:43:48;8.27;;;4.60;;
78783;SDS011;68127;51.050;14.084;2023-04-25T03:46:14;7.80;;;4.63;;
78783;SDS011;68127;51.050;14.084;2023-04-25T03:48:39;9.90;;;4.63;;
78783;SDS011;68127;51.050;14.084;2023-04-25T03:51:04;8.65;;;4.80;;
78783;SDS011;68127;51.050;14.084;2023-04-25T03:53:30;9.68;;;4.82;;
78783;SDS011;68127;51.050;14.084;2023-04-25T03:55:55;7.35;;;4.32;;
78783;SDS011;68127;51.050;14.084;2023-04-25T03:58:20;7.32;;;4.43;;
78783;SDS011;68127;51.050;14.084;2023-04-25T04:00:47;9.02;;;4.80;;
78783;SDS011;68127;51.050;14.084;2023-04-25T04:03:13;8.25;;;4.45;;
78783;SDS011;68127;51.050;14.084;2023-04-25T04:05:38;7.80;;;4.97;;
78783;SDS011;68127;51.050;14.084;2023-04-25T04:08:05;8.30;;;5.05;;
78783;SDS011;68127;51.050;14.084;2023-04-25T04:10:30;8.38;;;4.63;;
78783;SDS011;68127;51.050;14.084;2023-04-25T04:12:56;7.43;;;4.57;;
78783;SDS011;68127;51.050;14.084;2023-04-25T04:15:21;10.75;;;5.07;;
78783;SDS011;68127;51.050;14.084;2023-04-25T04:17:47;10.00;;;5.25;;
78783;SDS011;68127;51.050;14.084;2023-04-25T04:20:13;8.38;;;4.80;;
78783;SDS011;68127;51.050;14.084;2023-04-25T04:22:38;10.40;;;4.72;;
78783;SDS011;68127;51.050;14.084;2023-04-25T04:25:03;9.00;;;4.47;;
78783;SDS011;68127;51.050;14.084;2023-04-25T04:27:30;8.15;;;4.45;;
78783;SDS011;68127;51.050;14.084;2023-04-25T04:29:56;8.38;;;4.65;;
78783;SDS011;68127;51.050;14.084;2023-04-25T04:32:22;8.32;;;5.15;;
78783;SDS011;68127;51.050;14.084;2023-04-25T04:34:48;10.27;;;4.78;;
78783;SDS011;68127;51.050;14.084;2023-04-25T04:37:13;7.45;;;4.47;;
78783;SDS011;68127;51.050;14.084;2023-04-25T04:39:39;9.80;;;4.88;;
78783;SDS011;68127;51.050;14.084;2023-04-25T04:42:05;9.35;;;5.40;;
78783;SDS011;68127;51.050;14.084;2023-04-25T04:44:30;8.48;;;4.85;;
78783;SDS011;68127;51.050;14.084;2023-04-25T04:46:59;9.00;;;4.60;;
78783;SDS011;68127;51.050;14.084;2023-04-25T04:49:24;9.07;;;4.82;;
78783;SDS011;68127;51.050;14.084;2023-04-25T04:51:49;8.35;;;4.75;;
78783;SDS011;68127;51.050;14.084;2023-04-25T04:54:15;7.28;;;4.85;;
78783;SDS011;68127;51.050;14.084;2023-04-25T04:56:40;8.55;;;4.40;;
78783;SDS011;68127;51.050;14.084;2023-04-25T04:59:06;10.50;;;4.88;;
78783;SDS011;68127;51.050;14.084;2023-04-25T05:01:32;11.85;;;5.10;;
78783;SDS011;68127;51.050;14.084;2023-04-25T05:04:00;8.48;;;5.28;;
78783;SDS011;68127;51.050;14.084;2023-04-25T05:06:25;14.45;;;5.97;;
78783;SDS011;68127;51.050;14.084;2023-04-25T05:08:51;8.52;;;5.32;;
78783;SDS011;68127;51.050;14.084;2023-04-25T05:11:17;8.75;;;5.47;;
78783;SDS011;68127;51.050;14.084;2023-04-25T05:13:43;9.95;;;5.40;;
78783;SDS011;68127;51.050;14.084;2023-04-25T05:16:08;8.52;;;5.05;;
78783;SDS011;68127;51.050;14.084;2023-04-25T05:18:33;9.02;;;4.90;;
78783;SDS011;68127;51.050;14.084;2023-04-25T05:20:58;11.45;;;5.10;;
78783;SDS011;68127;51.050;14.084;2023-04-25T05:23:24;9.07;;;4.97;;
78783;SDS011;68127;51.050;14.084;2023-04-25T05:25:49;8.90;;;5.03;;
78783;SDS011;68127;51.050;14.084;2023-04-25T05:28:15;10.65;;;4.90;;
78783;SDS011;68127;51.050;14.084;2023-04-25T05:30:40;10.35;;;5.40;;
78783;SDS011;68127;51.050;14.084;2023-04-25T05:33:05;8.60;;;4.90;;
78783;SDS011;68127;51.050;14.084;2023-04-25T05:35:31;9.32;;;5.07;;
78783;SDS011;68127;51.050;14.084;2023-04-25T05:37:57;9.50;;;4.53;;
78783;SDS011;68127;51.050;14.084;2023-04-25T05:40:22;10.00;;;5.10;;
78783;SDS011;68127;51.050;14.084;2023-04-25T05:42:47;11.15;;;6.00;;
78783;SDS011;68127;51.050;14.084;2023-04-25T05:45:12;8.40;;;4.03;;
78783;SDS011;68127;51.050;14.084;2023-04-25T05:47:38;8.75;;;4.70;;
78783;SDS011;68127;51.050;14.084;2023-04-25T05:50:03;11.15;;;4.53;;
78783;SDS011;68127;51.050;14.084;2023-04-25T05:52:29;13.60;;;5.47;;
78783;SDS011;68127;51.050;14.084;2023-04-25T05:54:54;7.93;;;4.30;;
78783;SDS011;68127;51.050;14.084;2023-04-25T05:57:20;10.63;;;4.50;;
78783;SDS011;68127;51.050;14.084;2023-04-25T05:59:49;9.35;;;4.50;;
78783;SDS011;68127;51.050;14.084;2023-04-25T06:02:14;8.13;;;4.53;;
78783;SDS011;68127;51.050;14.084;2023-04-25T06:04:39;11.02;;;4.75;;
78783;SDS011;68127;51.050;14.084;2023-04-25T06:07:05;6.85;;;4.25;;
78783;SDS011;68127;51.050;14.084;2023-04-25T06:09:30;11.55;;;4.80;;
78783;SDS011;68127;51.050;14.084;2023-04-25T06:11:55;9.00;;;4.20;;
78783;SDS011;68127;51.050;14.084;2023-04-25T06:14:20;10.90;;;4.80;;
78783;SDS011;68127;51.050;14.084;2023-04-25T06:16:46;9.10;;;4.40;;
78783;SDS011;68127;51.050;14.084;2023-04-25T06:19:11;8.52;;;4.85;;
78783;SDS011;68127;51.050;14.084;2023-04-25T06:21:36;10.88;;;4.60;;
78783;SDS011;68127;51.050;14.084;2023-04-25T06:24:01;13.07;;;4.90;;
78783;SDS011;68127;51.050;14.084;2023-04-25T06:26:27;9.27;;;5.10;;
78783;SDS011;68127;51.050;14.084;2023-04-25T06:28:52;10.05;;;4.88;;
78783;SDS011;68127;51.050;14.084;2023-04-25T06:31:18;9.63;;;4.90;;
78783;SDS011;68127;51.050;14.084;2023-04-25T06:33:43;10.15;;;5.10;;
78783;SDS011;68127;51.050;14.084;2023-04-25T06:36:08;8.77;;;5.05;;
78783;SDS011;68127;51.050;14.084;2023-04-25T06:38:33;9.93;;;5.10;;
78783;SDS011;68127;51.050;14.084;2023-04-25T06:40:59;8.35;;;4.68;;
78783;SDS011;68127;51.050;14.084;2023-04-25T06:43:24;8.30;;;4.80;;
78783;SDS011;68127;51.050;14.084;2023-04-25T06:45:50;11.57;;;5.38;;
78783;SDS011;68127;51.050;14.084;2023-04-25T06:48:15;10.15;;;4.90;;
78783;SDS011;68127;51.050;14.084;2023-04-25T06:50:41;8.32;;;5.07;;
78783;SDS011;68127;51.050;14.084;2023-04-25T06:53:06;7.35;;;4.47;;
78783;SDS011;68127;51.050;14.084;2023-04-25T06:55:33;10.57;;;4.88;;
78783;SDS011;68127;51.050;14.084;2023-04-25T06:57:59;11.25;;;4.60;;
78783;SDS011;68127;51.050;14.084;2023-04-25T07:00:25;13.15;;;5.75;;
78783;SDS011;68127;51.050;14.084;2023-04-25T07:02:50;12.70;;;5.28;;
78783;SDS011;68127;51.050;14.084;2023-04-25T07:05:16;9.00;;;5.15;;
78783;SDS011;68127;51.050;14.084;2023-04-25T07:07:41;8.85;;;4.97;;
78783;SDS011;68127;51.050;14.084;2023-04-25T07:10:06;10.70;;;5.20;;
78783;SDS011;68127;51.050;14.084;2023-04-25T07:12:31;12.35;;;4.63;;
78783;SDS011;68127;51.050;14.084;2023-04-25T07:14:57;10.45;;;4.50;;
78783;SDS011;68127;51.050;14.084;2023-04-25T07:17:22;9.90;;;5.30;;
78783;SDS011;68127;51.050;14.084;2023-04-25T07:19:47;7.82;;;4.70;;
78783;SDS011;68127;51.050;14.084;2023-04-25T07:22:13;10.88;;;5.13;;
78783;SDS011;68127;51.050;14.084;2023-04-25T07:24:38;10.02;;;4.13;;
78783;SDS011;68127;51.050;14.084;2023-04-25T07:27:04;12.40;;;5.18;;
78783;SDS011;68127;51.050;14.084;2023-04-25T07:29:29;9.93;;;4.25;;
78783;SDS011;68127;51.050;14.084;2023-04-25T07:31:55;10.20;;;4.57;;
78783;SDS011;68127;51.050;14.084;2023-04-25T07:34:21;11.05;;;4.45;;
78783;SDS011;68127;51.050;14.084;2023-04-25T07:36:46;7.53;;;4.10;;
78783;SDS011;68127;51.050;14.084;2023-04-25T07:39:11;7.32;;;4.05;;
78783;SDS011;68127;51.050;14.084;2023-04-25T07:41:36;8.73;;;4.28;;
78783;SDS011;68127;51.050;14.084;2023-04-25T07:44:02;9.02;;;4.45;;
78783;SDS011;68127;51.050;14.084;2023-04-25T07:46:27;8.85;;;4.15;;
78783;SDS011;68127;51.050;14.084;2023-04-25T07:48:52;7.75;;;3.83;;
78783;SDS011;68127;51.050;14.084;2023-04-25T07:51:18;7.35;;;3.78;;
78783;SDS011;68127;51.050;14.084;2023-04-25T07:53:44;9.02;;;3.72;;
78783;SDS011;68127;51.050;14.084;2023-04-25T07:56:10;9.07;;;4.03;;
78783;SDS011;68127;51.050;14.084;2023-04-25T07:58:35;9.63;;;3.63;;
78783;SDS011;68127;51.050;14.084;2023-04-25T08:01:00;8.57;;;4.57;;
78783;SDS011;68127;51.050;14.084;2023-04-25T08:03:26;5.93;;;3.22;;
78783;SDS011;68127;51.050;14.084;2023-04-25T08:05:51;6.68;;;3.47;;
78783;SDS011;68127;51.050;14.084;2023-04-25T08:08:16;5.63;;;2.60;;
78783;SDS011;68127;51.050;14.084;2023-04-25T08:10:41;6.40;;;3.15;;
78783;SDS011;68127;51.050;14.084;2023-04-25T08:13:07;5.95;;;2.92;;
78783;SDS011;68127;51.050;14.084;2023-04-25T08:15:32;6.32;;;2.80;;
78783;SDS011;68127;51.050;14.084;2023-04-25T08:17:57;5.95;;;2.60;;
78783;SDS011;68127;51.050;14.084;2023-04-25T08:20:23;5.78;;;2.95;;
78783;SDS011;68127;51.050;14.084;2023-04-25T08:22:48;6.55;;;3.00;;
78783;SDS011;68127;51.050;14.084;2023-04-25T08:25:13;7.72;;;2.95;;
78783;SDS011;68127;51.050;14.084;2023-04-25T08:27:42;7.38;;;2.85;;
78783;SDS011;68127;51.050;14.084;2023-04-25T08:30:08;6.72;;;2.90;;
78783;SDS011;68127;51.050;14.084;2023-04-25T08:32:33;9.07;;;3.35;;
78783;SDS011;68127;51.050;14.084;2023-04-25T08:34:59;6.63;;;2.90;;
78783;SDS011;68127;51.050;14.084;2023-04-25T08:37:24;7.03;;;3.10;;
78783;SDS011;68127;51.050;14.084;2023-04-25T08:39:49;4.70;;;2.80;;
78783;SDS011;68127;51.050;14.084;2023-04-25T08:42:17;7.25;;;3.05;;
78783;SDS011;68127;51.050;14.084;2023-04-25T08:44:42;6.90;;;2.88;;
78783;SDS011;68127;51.050;14.084;2023-04-25T08:47:10;4.53;;;2.63;;
78783;SDS011;68127;51.050;14.084;2023-04-25T08:49:35;5.30;;;2.67;;
78783;SDS011;68127;51.050;14.084;2023-04-25T08:52:02;5.30;;;2.70;;
78783;SDS011;68127;51.050;14.084;2023-04-25T08:54:30;4.85;;;2.35;;
78783;SDS011;68127;51.050;14.084;2023-04-25T08:56:56;6.10;;;2.80;;
78783;SDS011;68127;51.050;14.084;2023-04-25T08:59:23;5.50;;;2.50;;
78783;SDS011;68127;51.050;14.084;2023-04-25T09:01:51;7.75;;;3.08;;
78783;SDS011;68127;51.050;14.084;2023-04-25T09:04:17;7.13;;;3.30;;
78783;SDS011;68127;51.050;14.084;2023-04-25T09:06:43;9.27;;;4.28;;
78783;SDS011;68127;51.050;14.084;2023-04-25T09:09:08;21.13;;;11.43;;
78783;SDS011;68127;51.050;14.084;2023-04-25T09:11:35;17.38;;;9.38;;
78783;SDS011;68127;51.050;14.084;2023-04-25T09:14:17;27.33;;;14.85;;
78783;SDS011;68127;51.050;14.084;2023-04-25T09:16:57;25.85;;;11.15;;
78783;SDS011;68127;51.050;14.084;2023-04-25T09:19:27;7.80;;;4.72;;
78783;SDS011;68127;51.050;14.084;2023-04-25T09:21:58;16.90;;;9.07;;
78783;SDS011;68127;51.050;14.084;2023-04-25T09:24:38;15.38;;;6.28;;
78783;SDS011;68127;51.050;14.084;2023-04-25T09:27:05;8.80;;;3.85;;
78783;SDS011;68127;51.050;14.084;2023-04-25T09:29:32;11.45;;;6.47;;
78783;SDS011;68127;51.050;14.084;2023-04-25T09:32:18;7.72;;;4.60;;
78783;SDS011;68127;51.050;14.084;2023-04-25T09:34:48;25.80;;;12.93;;
78783;SDS011;68127;51.050;14.084;2023-04-25T09:37:25;8.10;;;3.92;;
78783;SDS011;68127;51.050;14.084;2023-04-25T09:39:56;6.80;;;3.45;;
78783;SDS011;68127;51.050;14.084;2023-04-25T09:42:30;7.47;;;3.63;;
78783;SDS011;68127;51.050;14.084;2023-04-25T09:44:57;6.72;;;3.13;;
78783;SDS011;68127;51.050;14.084;2023-04-25T09:47:23;6.35;;;3.70;;
78783;SDS011;68127;51.050;14.084;2023-04-25T09:49:50;6.32;;;3.40;;
78783;SDS011;68127;51.050;14.084;2023-04-25T09:52:17;6.07;;;3.63;;
78783;SDS011;68127;51.050;14.084;2023-04-25T09:54:51;8.52;;;3.63;;
78783;SDS011;68127;51.050;14.084;2023-04-25T09:57:20;10.23;;;3.75;;
78783;SDS011;68127;51.050;14.084;2023-04-25T09:59:47;5.55;;;3.13;;
78783;SDS011;68127;51.050;14.084;2023-04-25T10:02:18;7.90;;;3.45;;
78783;SDS011;68127;51.050;14.084;2023-04-25T10:04:47;7.55;;;3.70;;
78783;SDS011;68127;51.050;14.084;2023-04-25T10:07:14;5.97;;;3.85;;
78783;SDS011;68127;51.050;14.084;2023-04-25T10:09:39;6.72;;;3.83;;
78783;SDS011;68127;51.050;14.084;2023-04-25T10:12:05;7.10;;;3.90;;
78783;SDS011;68127;51.050;14.084;2023-04-25T10:14:32;6.85;;;4.45;;
78783;SDS011;68127;51.050;14.084;2023-04-25T10:16:58;7.00;;;4.50;;
78783;SDS011;68127;51.050;14.084;2023-04-25T10:19:23;7.93;;;4.20;;
78783;SDS011;68127;51.050;14.084;2023-04-25T10:22:11;7.28;;;3.95;;
78783;SDS011;68127;51.050;14.084;2023-04-25T10:24:39;6.72;;;4.18;;
78783;SDS011;68127;51.050;14.084;2023-04-25T10:27:05;7.85;;;3.83;;
78783;SDS011;68127;51.050;14.084;2023-04-25T10:29:31;8.18;;;3.92;;
78783;SDS011;68127;51.050;14.084;2023-04-25T10:31:56;5.40;;;3.35;;
78783;SDS011;68127;51.050;14.084;2023-04-25T10:34:37;6.63;;;2.97;;
78783;SDS011;68127;51.050;14.084;2023-04-25T10:37:08;5.82;;;3.00;;
78783;SDS011;68127;51.050;14.084;2023-04-25T10:39:34;5.80;;;2.80;;
78783;SDS011;68127;51.050;14.084;2023-04-25T10:41:59;5.68;;;3.10;;
78783;SDS011;68127;51.050;14.084;2023-04-25T10:44:27;4.93;;;3.20;;
78783;SDS011;68127;51.050;14.084;2023-04-25T10:46:56;6.25;;;3.30;;
78783;SDS011;68127;51.050;14.084;2023-04-25T10:57:26;7.68;;;3.20;;
78783;SDS011;68127;51.050;14.084;2023-04-25T10:59:54;6.05;;;3.22;;
78783;SDS011;68127;51.050;14.084;2023-04-25T11:02:23;6.28;;;2.65;;
78783;SDS011;68127;51.050;14.084;2023-04-25T11:04:52;6.45;;;2.75;;
78783;SDS011;68127;51.050;14.084;2023-04-25T11:10:09;4.40;;;2.70;;
78783;SDS011;68127;51.050;14.084;2023-04-25T11:12:34;7.03;;;2.47;;
78783;SDS011;68127;51.050;14.084;2023-04-25T11:15:06;7.28;;;2.90;;
78783;SDS011;68127;51.050;14.084;2023-04-25T11:17:32;6.53;;;3.13;;
78783;SDS011;68127;51.050;14.084;2023-04-25T11:19:58;4.65;;;2.90;;
78783;SDS011;68127;51.050;14.084;2023-04-25T11:22:23;6.30;;;2.80;;
78783;SDS011;68127;51.050;14.084;2023-04-25T11:24:48;6.78;;;3.33;;
78783;SDS011;68127;51.050;14.084;2023-04-25T11:27:14;5.72;;;2.90;;
78783;SDS011;68127;51.050;14.084;2023-04-25T11:29:40;6.70;;;2.83;;
78783;SDS011;68127;51.050;14.084;2023-04-25T11:32:05;7.38;;;3.97;;
78783;SDS011;68127;51.050;14.084;2023-04-25T11:34:31;6.53;;;3.33;;
78783;SDS011;68127;51.050;14.084;2023-04-25T11:36:57;8.27;;;3.58;;
78783;SDS011;68127;51.050;14.084;2023-04-25T11:39:24;8.73;;;3.85;;
78783;SDS011;68127;51.050;14.084;2023-04-25T11:41:50;8.20;;;4.45;;
78783;SDS011;68127;51.050;14.084;2023-04-25T11:44:15;7.78;;;4.05;;
78783;SDS011;68127;51.050;14.084;2023-04-25T11:46:42;8.07;;;4.32;;
78783;SDS011;68127;51.050;14.084;2023-04-25T11:49:07;6.47;;;4.43;;
78783;SDS011;68127;51.050;14.084;2023-04-25T11:51:39;8.93;;;4.93;;
78783;SDS011;68127;51.050;14.084;2023-04-25T11:54:05;10.88;;;4.90;;
78783;SDS011;68127;51.050;14.084;2023-04-25T11:56:30;7.72;;;4.03;;
78783;SDS011;68127;51.050;14.084;2023-04-25T11:58:57;10.52;;;4.43;;
78783;SDS011;68127;51.050;14.084;2023-04-25T12:03:55;8.25;;;3.75;;
78783;SDS011;68127;51.050;14.084;2023-04-25T12:06:20;7.97;;;3.45;;
78783;SDS011;68127;51.050;14.084;2023-04-25T12:08:59;7.53;;;3.55;;
78783;SDS011;68127;51.050;14.084;2023-04-25T12:11:47;5.85;;;2.80;;
78783;SDS011;68127;51.050;14.084;2023-04-25T12:14:23;5.82;;;2.40;;
78783;SDS011;68127;51.050;14.084;2023-04-25T12:16:54;6.53;;;2.35;;
78783;SDS011;68127;51.050;14.084;2023-04-25T12:19:20;5.30;;;2.10;;
78783;SDS011;68127;51.050;14.084;2023-04-25T12:21:46;6.07;;;2.20;;
78783;SDS011;68127;51.050;14.084;2023-04-25T12:24:13;3.20;;;1.98;;
78783;SDS011;68127;51.050;14.084;2023-04-25T12:29:17;4.88;;;2.13;;
78783;SDS011;68127;51.050;14.084;2023-04-25T12:31:47;4.30;;;2.17;;
78783;SDS011;68127;51.050;14.084;2023-04-25T12:34:13;6.13;;;2.45;;
78783;SDS011;68127;51.050;14.084;2023-04-25T12:36:38;4.40;;;2.25;;
78783;SDS011;68127;51.050;14.084;2023-04-25T12:39:04;5.47;;;2.30;;
78783;SDS011;68127;51.050;14.084;2023-04-25T12:41:30;7.00;;;2.33;;
78783;SDS011;68127;51.050;14.084;2023-04-25T12:43:55;5.85;;;2.47;;
78783;SDS011;68127;51.050;14.084;2023-04-25T12:46:21;6.57;;;2.78;;
78783;SDS011;68127;51.050;14.084;2023-04-25T12:48:47;7.05;;;2.60;;
78783;SDS011;68127;51.050;14.084;2023-04-25T12:51:13;8.90;;;2.30;;
78783;SDS011;68127;51.050;14.084;2023-04-25T12:53:38;5.47;;;2.70;;
78783;SDS011;68127;51.050;14.084;2023-04-25T12:56:05;5.97;;;2.47;;
78783;SDS011;68127;51.050;14.084;2023-04-25T12:58:32;6.78;;;2.47;;
78783;SDS011;68127;51.050;14.084;2023-04-25T13:00:58;9.07;;;2.80;;
78783;SDS011;68127;51.050;14.084;2023-04-25T13:03:23;9.40;;;2.60;;
78783;SDS011;68127;51.050;14.084;2023-04-25T13:05:49;8.32;;;2.58;;
78783;SDS011;68127;51.050;14.084;2023-04-25T13:08:15;7.18;;;2.65;;
78783;SDS011;68127;51.050;14.084;2023-04-25T13:10:40;11.57;;;2.97;;
78783;SDS011;68127;51.050;14.084;2023-04-25T13:13:06;8.10;;;3.35;;
78783;SDS011;68127;51.050;14.084;2023-04-25T13:15:32;9.52;;;3.28;;
78783;SDS011;68127;51.050;14.084;2023-04-25T13:17:57;9.65;;;3.13;;
78783;SDS011;68127;51.050;14.084;2023-04-25T13:20:22;8.18;;;3.65;;
78783;SDS011;68127;51.050;14.084;2023-04-25T13:22:47;10.35;;;3.45;;
78783;SDS011;68127;51.050;14.084;2023-04-25T13:25:13;8.05;;;3.10;;
78783;SDS011;68127;51.050;14.084;2023-04-25T13:27:38;10.20;;;3.33;;
78783;SDS011;68127;51.050;14.084;2023-04-25T13:30:05;10.10;;;3.50;;
78783;SDS011;68127;51.050;14.084;2023-04-25T13:32:35;8.25;;;3.75;;
78783;SDS011;68127;51.050;14.084;2023-04-25T13:35:02;11.77;;;3.47;;
78783;SDS011;68127;51.050;14.084;2023-04-25T13:37:28;13.75;;;3.88;;
78783;SDS011;68127;51.050;14.084;2023-04-25T13:39:54;9.82;;;3.95;;
78783;SDS011;68127;51.050;14.084;2023-04-25T13:42:20;9.85;;;3.85;;
78783;SDS011;68127;51.050;14.084;2023-04-25T13:44:46;10.00;;;3.90;;
78783;SDS011;68127;51.050;14.084;2023-04-25T13:47:11;16.17;;;5.00;;
78783;SDS011;68127;51.050;14.084;2023-04-25T13:49:36;11.77;;;3.90;;
78783;SDS011;68127;51.050;14.084;2023-04-25T13:52:01;10.07;;;3.97;;
78783;SDS011;68127;51.050;14.084;2023-04-25T13:54:27;9.38;;;4.13;;
78783;SDS011;68127;51.050;14.084;2023-04-25T13:56:52;11.07;;;3.65;;
78783;SDS011;68127;51.050;14.084;2023-04-25T13:59:20;9.38;;;3.92;;
78783;SDS011;68127;51.050;14.084;2023-04-25T14:01:45;13.52;;;4.35;;
78783;SDS011;68127;51.050;14.084;2023-04-25T14:04:11;12.40;;;4.22;;
78783;SDS011;68127;51.050;14.084;2023-04-25T14:06:36;16.65;;;4.10;;
78783;SDS011;68127;51.050;14.084;2023-04-25T14:09:01;9.10;;;4.13;;
78783;SDS011;68127;51.050;14.084;2023-04-25T14:11:29;11.82;;;4.20;;
78783;SDS011;68127;51.050;14.084;2023-04-25T14:13:54;10.48;;;3.90;;
78783;SDS011;68127;51.050;14.084;2023-04-25T14:16:19;10.43;;;3.78;;
78783;SDS011;68127;51.050;14.084;2023-04-25T14:18:45;11.73;;;4.15;;
78783;SDS011;68127;51.050;14.084;2023-04-25T14:21:13;14.07;;;4.40;;
78783;SDS011;68127;51.050;14.084;2023-04-25T14:23:38;11.77;;;3.80;;
78783;SDS011;68127;51.050;14.084;2023-04-25T14:26:04;11.60;;;3.67;;
78783;SDS011;68127;51.050;14.084;2023-04-25T14:28:30;10.63;;;3.83;;
78783;SDS011;68127;51.050;14.084;2023-04-25T14:30:55;11.25;;;3.67;;
78783;SDS011;68127;51.050;14.084;2023-04-25T14:33:21;7.32;;;3.28;;
78783;SDS011;68127;51.050;14.084;2023-04-25T14:35:47;10.68;;;3.72;;
78783;SDS011;68127;51.050;14.084;2023-04-25T14:38:12;9.80;;;3.72;;
78783;SDS011;68127;51.050;14.084;2023-04-25T14:40:37;10.02;;;3.55;;